Time;durP1;ratioP1;P1;durP2;ratioP2;P2;SDS_P1;SDS_P2;PMS_P1;PMS_P2;Temp;Humidity;BMP_temperature;BMP_pressure;BME280_temperature;BME280_humidity;BME280_pressure;Samples;Min_cycle;Max_cycle;Signal;HPM_P1;HPM_P2
2023/01/15 00:01:38;;;;;;;0.70;0.70;;;;;;;;;;4943790;28;20213;-86
2023/01/15 00:04:05;;;;;;;1.43;0.80;;;;;;;;;;4946744;28;20233;-87
2023/01/15 00:06:34;;;;;;;1.63;1.13;;;;;;;;;;4927646;28;20583;-86
2023/01/15 00:09:01;;;;;;;2.03;1.20;;;;;;;;;;4949361;28;20619;-86
2023/01/15 00:11:27;;;;;;;2.20;1.00;;;;;;;;;;4929569;28;20222;-87
2023/01/15 00:13:53;;;;;;;1.40;1.10;;;;;;;;;;4956999;28;20210;-90
2023/01/15 00:16:23;;;;;;;0.93;0.80;;;;;;;;;;4973891;28;20226;-87
2023/01/15 00:18:50;;;;;;;1.50;0.90;;;;;;;;;;4967178;28;20234;-88
2023/01/15 00:21:17;;;;;;;1.83;0.90;;;;;;;;;;4936671;28;20237;-87
2023/01/15 00:29:20;;;;;;;1.13;0.93;;;;;;;;;;4973606;28;20225;-87
2023/01/15 00:32:01;;;;;;;0.60;0.60;;;;;;;;;;4937621;28;20265;-87
2023/01/15 00:34:41;;;;;;;2.43;0.80;;;;;;;;;;4953040;28;20221;-87
2023/01/15 00:37:16;;;;;;;0.80;0.60;;;;;;;;;;4953147;28;20234;-88
2023/01/15 00:39:42;;;;;;;2.17;0.70;;;;;;;;;;4950752;28;20695;-87
2023/01/15 00:42:08;;;;;;;1.00;0.73;;;;;;;;;;4972439;28;20328;-88
2023/01/15 00:44:34;;;;;;;1.93;0.80;;;;;;;;;;4955415;28;20222;-87
2023/01/15 00:47:02;;;;;;;1.23;0.70;;;;;;;;;;4922820;28;20234;-88
2023/01/15 00:49:35;;;;;;;1.67;0.80;;;;;;;;;;4937834;28;20233;-88
2023/01/15 00:52:03;;;;;;;1.30;0.73;;;;;;;;;;4936711;28;20222;-88
2023/01/15 00:54:29;;;;;;;1.00;0.70;;;;;;;;;;4947497;28;20226;-90
2023/01/15 00:57:01;;;;;;;1.20;1.07;;;;;;;;;;4964766;28;20278;-89
2023/01/15 00:59:26;;;;;;;2.00;1.00;;;;;;;;;;4953039;28;20242;-87
2023/01/15 01:02:01;;;;;;;1.33;0.70;;;;;;;;;;4989987;28;20222;-89
2023/01/15 01:04:26;;;;;;;1.97;1.00;;;;;;;;;;4956164;28;20210;-89
2023/01/15 01:06:53;;;;;;;1.10;0.83;;;;;;;;;;4961902;28;20590;-88
2023/01/15 01:09:20;;;;;;;2.50;0.90;;;;;;;;;;4956774;28;20224;-89
2023/01/15 01:11:48;;;;;;;2.23;0.90;;;;;;;;;;4939354;28;20209;-89
2023/01/15 01:14:13;;;;;;;2.57;1.00;;;;;;;;;;4965351;28;20218;-89
2023/01/15 01:16:40;;;;;;;2.20;0.90;;;;;;;;;;4952079;28;20234;-89
2023/01/15 01:19:09;;;;;;;1.80;0.90;;;;;;;;;;4936223;28;20242;-87
2023/01/15 01:21:38;;;;;;;1.43;0.73;;;;;;;;;;4955779;28;20225;-87
2023/01/15 01:24:04;;;;;;;3.40;0.80;;;;;;;;;;4935814;28;20229;-92
2023/01/15 01:26:30;;;;;;;1.53;0.87;;;;;;;;;;4947034;28;20628;-88
2023/01/15 01:28:57;;;;;;;1.47;0.60;;;;;;;;;;4959212;28;20217;-88
2023/01/15 01:31:23;;;;;;;2.30;0.87;;;;;;;;;;4964440;28;20243;-88
2023/01/15 01:33:52;;;;;;;1.20;0.93;;;;;;;;;;4963900;28;20205;-88
2023/01/15 01:36:17;;;;;;;1.07;0.70;;;;;;;;;;4951387;28;20325;-87
2023/01/15 01:38:49;;;;;;;2.07;0.90;;;;;;;;;;4931028;28;20250;-88
2023/01/15 01:41:18;;;;;;;2.17;0.93;;;;;;;;;;4949185;28;20249;-89
2023/01/15 01:43:57;;;;;;;2.60;0.87;;;;;;;;;;4931291;28;20284;-89
2023/01/15 01:46:29;;;;;;;3.07;0.70;;;;;;;;;;4972441;28;20253;-87
2023/01/15 01:49:14;;;;;;;1.40;0.70;;;;;;;;;;4953852;28;20221;-88
2023/01/15 01:52:07;;;;;;;1.40;0.67;;;;;;;;;;4961958;28;20260;-86
2023/01/15 01:54:33;;;;;;;1.60;0.60;;;;;;;;;;4976202;28;20229;-86
2023/01/15 01:57:01;;;;;;;2.17;0.77;;;;;;;;;;4948425;28;20248;-87
2023/01/15 01:59:28;;;;;;;3.00;0.97;;;;;;;;;;4946225;28;20230;-89
2023/01/15 02:01:56;;;;;;;1.23;0.63;;;;;;;;;;4950588;28;20222;-87
2023/01/15 02:04:22;;;;;;;2.00;0.80;;;;;;;;;;4951575;28;20313;-87
2023/01/15 02:06:49;;;;;;;2.27;0.60;;;;;;;;;;4946111;28;20226;-89
2023/01/15 02:09:15;;;;;;;2.03;0.80;;;;;;;;;;4930093;28;20229;-88
2023/01/15 02:11:43;;;;;;;2.80;0.90;;;;;;;;;;4936127;28;20240;-88
2023/01/15 02:14:10;;;;;;;1.80;0.90;;;;;;;;;;4935212;28;20257;-87
2023/01/15 02:16:40;;;;;;;1.80;0.73;;;;;;;;;;4934859;28;20221;-87
2023/01/15 02:19:26;;;;;;;5.03;0.83;;;;;;;;;;4932384;28;20218;-87
2023/01/15 02:21:56;;;;;;;3.70;0.90;;;;;;;;;;4969047;28;20250;-88
2023/01/15 02:24:24;;;;;;;3.17;0.80;;;;;;;;;;4922247;28;20225;-88
2023/01/15 02:26:53;;;;;;;2.00;0.83;;;;;;;;;;4978165;28;20705;-87
2023/01/15 02:29:45;;;;;;;2.03;0.80;;;;;;;;;;4966700;28;20761;-88
2023/01/15 02:32:18;;;;;;;2.37;0.73;;;;;;;;;;4951274;28;20226;-87
2023/01/15 02:34:50;;;;;;;1.57;0.70;;;;;;;;;;4956515;28;20228;-87
2023/01/15 02:37:19;;;;;;;1.43;0.70;;;;;;;;;;4940843;28;20249;-87
2023/01/15 02:39:44;;;;;;;3.13;0.97;;;;;;;;;;4945338;28;20696;-88
2023/01/15 02:42:11;;;;;;;2.23;0.83;;;;;;;;;;4945284;28;20237;-86
2023/01/15 02:44:46;;;;;;;2.17;0.77;;;;;;;;;;4946650;28;20226;-86
2023/01/15 02:47:16;;;;;;;2.03;0.77;;;;;;;;;;4945096;28;20236;-85
2023/01/15 02:49:41;;;;;;;2.73;1.10;;;;;;;;;;4944325;28;20225;-87
2023/01/15 02:52:16;;;;;;;1.40;0.60;;;;;;;;;;4931009;28;20257;-87
2023/01/15 02:55:06;;;;;;;4.47;1.03;;;;;;;;;;4936865;28;20225;-87
2023/01/15 02:57:33;;;;;;;3.47;0.90;;;;;;;;;;4964622;28;20301;-89
2023/01/15 03:00:00;;;;;;;3.00;0.87;;;;;;;;;;4964771;28;20324;-89
2023/01/15 03:02:29;;;;;;;2.13;0.70;;;;;;;;;;4944772;28;20303;-87
2023/01/15 03:05:19;;;;;;;1.83;0.67;;;;;;;;;;4957751;28;20216;-86
2023/01/15 03:08:01;;;;;;;2.17;0.73;;;;;;;;;;4956202;28;20218;-87
2023/01/15 03:10:46;;;;;;;1.53;0.90;;;;;;;;;;4943747;28;20236;-86
2023/01/15 03:13:16;;;;;;;2.67;0.83;;;;;;;;;;4974695;28;20229;-87
2023/01/15 03:18:54;;;;;;;3.93;0.93;;;;;;;;;;4971685;28;20236;-85
2023/01/15 03:21:24;;;;;;;1.63;0.53;;;;;;;;;;4949818;28;20237;-84
2023/01/15 03:23:52;;;;;;;4.27;0.80;;;;;;;;;;4958676;28;20217;-84
2023/01/15 03:26:23;;;;;;;1.67;0.70;;;;;;;;;;4928399;28;20233;-84
2023/01/15 03:28:52;;;;;;;3.47;0.90;;;;;;;;;;4924380;28;20301;-85
2023/01/15 03:31:18;;;;;;;2.33;0.97;;;;;;;;;;4926069;28;20217;-85
2023/01/15 03:33:46;;;;;;;3.30;0.90;;;;;;;;;;4942085;28;20705;-86
2023/01/15 03:36:18;;;;;;;2.50;0.90;;;;;;;;;;4933226;28;20226;-87
2023/01/15 03:38:49;;;;;;;2.87;0.70;;;;;;;;;;4944349;28;20226;-88
2023/01/15 03:41:49;;;;;;;3.30;0.90;;;;;;;;;;4932700;28;20218;-83
2023/01/15 03:44:39;;;;;;;2.80;1.00;;;;;;;;;;4923905;28;20232;-86
2023/01/15 03:47:09;;;;;;;2.33;0.63;;;;;;;;;;4966146;28;20287;-86
2023/01/15 03:50:16;;;;;;;2.87;0.80;;;;;;;;;;4953910;28;20589;-86
2023/01/15 03:52:54;;;;;;;1.80;0.80;;;;;;;;;;4979398;28;20277;-86
2023/01/15 03:55:24;;;;;;;2.03;1.00;;;;;;;;;;4955115;28;20249;-87
2023/01/15 03:58:20;;;;;;;3.00;0.80;;;;;;;;;;4950640;28;20235;-87
2023/01/15 04:00:58;;;;;;;3.83;0.87;;;;;;;;;;4965785;28;20353;-85
2023/01/15 04:03:27;;;;;;;2.77;0.90;;;;;;;;;;4943350;28;20218;-87
2023/01/15 04:05:58;;;;;;;1.60;1.00;;;;;;;;;;4947522;28;20213;-86
2023/01/15 04:08:28;;;;;;;2.00;0.80;;;;;;;;;;4930949;28;20262;-87
2023/01/15 04:10:57;;;;;;;3.73;0.83;;;;;;;;;;4925949;28;20242;-90
2023/01/15 04:13:26;;;;;;;3.07;0.90;;;;;;;;;;4943495;28;20214;-87
2023/01/15 04:15:55;;;;;;;3.60;0.87;;;;;;;;;;4944161;28;20232;-89
2023/01/15 04:18:23;;;;;;;4.20;0.80;;;;;;;;;;4937274;28;20374;-88
2023/01/15 04:20:49;;;;;;;1.10;0.80;;;;;;;;;;4944381;28;20692;-88
2023/01/15 04:23:15;;;;;;;2.37;1.00;;;;;;;;;;4944972;28;20225;-88
2023/01/15 04:25:43;;;;;;;3.10;1.17;;;;;;;;;;4945325;28;20226;-89
2023/01/15 04:28:11;;;;;;;1.93;0.80;;;;;;;;;;4929043;28;20313;-88
2023/01/15 04:30:37;;;;;;;3.50;0.93;;;;;;;;;;4968977;28;20666;-86
2023/01/15 04:33:04;;;;;;;1.53;0.77;;;;;;;;;;4942688;28;20300;-88
2023/01/15 04:35:29;;;;;;;1.60;0.93;;;;;;;;;;4926584;28;20226;-86
2023/01/15 04:37:56;;;;;;;3.57;1.00;;;;;;;;;;4946569;28;20605;-86
2023/01/15 04:45:53;;;;;;;3.73;0.90;;;;;;;;;;4947138;28;20309;-87
2023/01/15 04:48:21;;;;;;;2.47;1.10;;;;;;;;;;4944541;28;20298;-86
2023/01/15 04:50:48;;;;;;;4.03;1.10;;;;;;;;;;4938716;28;20771;-84
2023/01/15 04:53:14;;;;;;;5.27;0.93;;;;;;;;;;4943015;28;20226;-88
2023/01/15 04:55:40;;;;;;;3.23;0.87;;;;;;;;;;4938797;28;20280;-87
2023/01/15 04:58:08;;;;;;;1.30;0.80;;;;;;;;;;4935732;28;20226;-85
2023/01/15 05:00:35;;;;;;;3.23;1.03;;;;;;;;;;4946165;28;20213;-87
2023/01/15 05:03:03;;;;;;;4.33;0.90;;;;;;;;;;4944476;28;20261;-86
2023/01/15 05:05:31;;;;;;;3.40;0.73;;;;;;;;;;4928015;28;20226;-89
2023/01/15 05:07:57;;;;;;;2.27;0.73;;;;;;;;;;4927506;28;20291;-88
2023/01/15 05:10:25;;;;;;;2.37;0.90;;;;;;;;;;4946633;28;20233;-88
2023/01/15 05:12:51;;;;;;;2.07;0.70;;;;;;;;;;4958718;28;20230;-88
2023/01/15 05:15:18;;;;;;;6.03;1.10;;;;;;;;;;4938732;28;20238;-87
2023/01/15 05:17:47;;;;;;;2.30;0.90;;;;;;;;;;4944045;28;20722;-87
2023/01/15 05:20:13;;;;;;;2.07;1.10;;;;;;;;;;4937694;28;20241;-87
2023/01/15 05:22:39;;;;;;;2.03;1.00;;;;;;;;;;4936308;28;20222;-87
2023/01/15 05:25:05;;;;;;;3.30;0.97;;;;;;;;;;4929180;28;20248;-88
2023/01/15 05:27:32;;;;;;;3.13;1.00;;;;;;;;;;4937644;28;20245;-88
2023/01/15 05:30:00;;;;;;;1.70;0.90;;;;;;;;;;4941510;28;20229;-87
2023/01/15 05:32:29;;;;;;;2.50;0.80;;;;;;;;;;4937710;28;20306;-87
2023/01/15 05:34:58;;;;;;;4.10;1.00;;;;;;;;;;4945274;28;20285;-86
2023/01/15 05:37:23;;;;;;;3.73;1.20;;;;;;;;;;4932697;28;20242;-88
2023/01/15 05:39:49;;;;;;;1.47;0.73;;;;;;;;;;4950866;28;20225;-87
2023/01/15 05:42:15;;;;;;;5.07;1.20;;;;;;;;;;4959932;28;20213;-88
2023/01/15 05:44:40;;;;;;;2.43;0.80;;;;;;;;;;4945828;28;20232;-86
2023/01/15 05:47:06;;;;;;;4.27;1.50;;;;;;;;;;4926995;28;20234;-86
2023/01/15 05:49:32;;;;;;;2.80;1.07;;;;;;;;;;4946943;28;20225;-86
2023/01/15 05:51:59;;;;;;;2.30;1.10;;;;;;;;;;4968241;28;20217;-88
2023/01/15 05:54:27;;;;;;;1.37;0.90;;;;;;;;;;4938091;28;20238;-88
2023/01/15 05:56:53;;;;;;;2.73;0.90;;;;;;;;;;4922435;28;20298;-86
2023/01/15 05:59:20;;;;;;;4.37;1.20;;;;;;;;;;4944629;28;20308;-87
2023/01/15 06:01:46;;;;;;;3.90;1.33;;;;;;;;;;4950909;28;20312;-87
2023/01/15 06:04:13;;;;;;;2.80;1.10;;;;;;;;;;4926389;28;20669;-85
2023/01/15 06:06:41;;;;;;;2.17;0.90;;;;;;;;;;4944854;28;20229;-88
2023/01/15 06:09:07;;;;;;;3.53;1.67;;;;;;;;;;4941948;28;20246;-87
2023/01/15 06:11:32;;;;;;;4.50;1.67;;;;;;;;;;4953431;28;20245;-88
2023/01/15 06:13:58;;;;;;;4.27;1.50;;;;;;;;;;4936781;28;20224;-86
2023/01/15 06:16:24;;;;;;;2.93;1.33;;;;;;;;;;4941755;28;20615;-88
2023/01/15 06:18:51;;;;;;;5.53;1.43;;;;;;;;;;4942615;28;20233;-87
2023/01/15 06:21:17;;;;;;;2.77;1.43;;;;;;;;;;4954969;28;20225;-86
2023/01/15 06:23:47;;;;;;;3.40;1.53;;;;;;;;;;4942715;28;20217;-86
2023/01/15 06:26:18;;;;;;;2.37;1.50;;;;;;;;;;4943562;28;20237;-85
2023/01/15 06:28:46;;;;;;;8.40;1.90;;;;;;;;;;4946200;28;20908;-88
2023/01/15 06:31:14;;;;;;;3.53;1.30;;;;;;;;;;4929623;28;20225;-88
2023/01/15 06:33:39;;;;;;;2.03;1.30;;;;;;;;;;4949824;28;20769;-87
2023/01/15 06:36:14;;;;;;;7.83;1.73;;;;;;;;;;4946645;28;20230;-86
2023/01/15 06:38:42;;;;;;;2.60;1.43;;;;;;;;;;4931306;28;20273;-87
2023/01/15 06:49:29;;;;;;;5.23;1.63;;;;;;;;;;4956216;28;20299;-86
2023/01/15 06:51:55;;;;;;;3.43;1.97;;;;;;;;;;4945613;28;20767;-89
2023/01/15 06:54:20;;;;;;;3.70;2.17;;;;;;;;;;4946823;28;20222;-87
2023/01/15 06:56:46;;;;;;;5.30;1.73;;;;;;;;;;4934707;28;20717;-89
2023/01/15 06:59:11;;;;;;;4.17;1.50;;;;;;;;;;4981620;28;20229;-88
2023/01/15 07:01:37;;;;;;;3.07;1.73;;;;;;;;;;4962352;28;20226;-89
2023/01/15 07:04:04;;;;;;;3.50;1.63;;;;;;;;;;4958985;28;20228;-87
2023/01/15 07:06:30;;;;;;;5.80;1.60;;;;;;;;;;4943979;28;20285;-86
2023/01/15 07:08:59;;;;;;;4.33;1.80;;;;;;;;;;4953420;28;20272;-88
2023/01/15 07:11:26;;;;;;;2.67;1.80;;;;;;;;;;4931194;28;20250;-89
2023/01/15 07:14:04;;;;;;;6.13;1.77;;;;;;;;;;4986476;28;20300;-86
2023/01/15 07:16:33;;;;;;;5.33;1.60;;;;;;;;;;4954109;28;20229;-86
2023/01/15 07:19:01;;;;;;;7.90;1.73;;;;;;;;;;4951260;28;20293;-88
2023/01/15 07:21:29;;;;;;;4.73;2.10;;;;;;;;;;4929941;28;20214;-88
2023/01/15 07:23:57;;;;;;;5.27;1.97;;;;;;;;;;4948422;28;20221;-86
2023/01/15 07:26:23;;;;;;;7.83;1.97;;;;;;;;;;4943391;28;20394;-89
2023/01/15 07:28:49;;;;;;;7.00;1.60;;;;;;;;;;4930559;28;20226;-88
2023/01/15 07:31:14;;;;;;;6.73;1.73;;;;;;;;;;4942515;28;20229;-88
2023/01/15 07:33:42;;;;;;;3.30;1.40;;;;;;;;;;4926004;28;20228;-88
2023/01/15 07:36:10;;;;;;;6.30;1.60;;;;;;;;;;4948619;28;20233;-88
2023/01/15 07:38:35;;;;;;;3.40;1.37;;;;;;;;;;4929142;28;20611;-89
2023/01/15 07:52:02;;;;;;;4.30;1.40;;;;;;;;;;4954398;28;20230;-86
2023/01/15 07:54:28;;;;;;;4.73;1.33;;;;;;;;;;4944685;28;20236;-88
2023/01/15 07:56:53;;;;;;;4.47;1.77;;;;;;;;;;4941090;28;20231;-87
2023/01/15 07:59:19;;;;;;;2.93;1.23;;;;;;;;;;4943455;28;20246;-88
2023/01/15 08:01:44;;;;;;;3.27;1.53;;;;;;;;;;4932207;28;20214;-88
2023/01/15 08:04:10;;;;;;;3.70;1.67;;;;;;;;;;4926410;28;20256;-89
2023/01/15 08:06:36;;;;;;;3.50;1.40;;;;;;;;;;4924858;28;20656;-88
2023/01/15 08:09:02;;;;;;;4.30;1.50;;;;;;;;;;4946755;28;20233;-89
2023/01/15 08:17:00;;;;;;;5.83;1.20;;;;;;;;;;4977042;28;20228;-88
2023/01/15 08:19:29;;;;;;;7.97;1.57;;;;;;;;;;4928364;28;20228;-87
2023/01/15 08:21:55;;;;;;;2.27;1.20;;;;;;;;;;4955349;28;20601;-87
2023/01/15 08:24:22;;;;;;;3.93;1.40;;;;;;;;;;4948112;28;20221;-85
2023/01/15 08:26:50;;;;;;;4.50;2.10;;;;;;;;;;4954833;28;20609;-87
2023/01/15 08:29:16;;;;;;;5.03;1.80;;;;;;;;;;4934509;28;20229;-87
2023/01/15 08:31:41;;;;;;;5.50;1.77;;;;;;;;;;4972779;28;20724;-88
2023/01/15 08:34:09;;;;;;;3.70;1.33;;;;;;;;;;4946731;28;20232;-86
2023/01/15 08:36:35;;;;;;;2.97;1.33;;;;;;;;;;4931833;28;20225;-88
2023/01/15 08:39:01;;;;;;;6.60;1.70;;;;;;;;;;4948150;28;20225;-88
2023/01/15 08:41:26;;;;;;;6.20;1.50;;;;;;;;;;4946516;28;20221;-86
2023/01/15 08:43:52;;;;;;;4.10;2.30;;;;;;;;;;4928808;28;20233;-87
2023/01/15 08:46:19;;;;;;;4.10;1.50;;;;;;;;;;4951621;28;20704;-87
2023/01/15 08:48:45;;;;;;;3.77;1.27;;;;;;;;;;4930416;28;20268;-90
2023/01/15 08:51:11;;;;;;;3.73;1.80;;;;;;;;;;4934074;28;20233;-88
2023/01/15 08:53:39;;;;;;;3.87;1.70;;;;;;;;;;4989860;28;20221;-86
2023/01/15 08:56:16;;;;;;;4.70;1.63;;;;;;;;;;4934586;28;20237;-88
2023/01/15 08:58:41;;;;;;;5.57;1.63;;;;;;;;;;4964112;28;20240;-89
2023/01/15 09:01:15;;;;;;;1.97;1.33;;;;;;;;;;4954057;28;20221;-85
2023/01/15 09:03:41;;;;;;;2.57;1.47;;;;;;;;;;4955787;28;20249;-86
2023/01/15 09:06:07;;;;;;;1.80;1.07;;;;;;;;;;4948849;28;20226;-87
2023/01/15 09:08:40;;;;;;;2.50;1.00;;;;;;;;;;4967232;28;20245;-86
2023/01/15 09:11:08;;;;;;;1.13;0.80;;;;;;;;;;4932280;28;20222;-87
2023/01/15 09:13:34;;;;;;;0.63;0.63;;;;;;;;;;4953019;28;20586;-87
2023/01/15 09:16:01;;;;;;;1.23;0.83;;;;;;;;;;4947213;28;20256;-87
2023/01/15 09:18:27;;;;;;;2.37;0.73;;;;;;;;;;4936667;28;20224;-87
2023/01/15 09:20:53;;;;;;;4.70;0.93;;;;;;;;;;4942088;28;20222;-87
2023/01/15 09:23:18;;;;;;;1.57;0.70;;;;;;;;;;4936541;28;20230;-87
2023/01/15 09:25:54;;;;;;;1.63;0.70;;;;;;;;;;4947798;28;20767;-88
2023/01/15 09:28:21;;;;;;;1.17;0.70;;;;;;;;;;4927216;28;20222;-87
2023/01/15 09:30:47;;;;;;;2.30;1.00;;;;;;;;;;4975694;28;20229;-86
2023/01/15 09:33:13;;;;;;;1.77;0.83;;;;;;;;;;4964108;28;20303;-87
2023/01/15 09:35:39;;;;;;;2.40;0.70;;;;;;;;;;4933333;28;20642;-88
2023/01/15 09:38:04;;;;;;;2.70;1.00;;;;;;;;;;4927623;28;20266;-88
2023/01/15 09:40:55;;;;;;;2.37;0.80;;;;;;;;;;4951261;28;20225;-87
2023/01/15 09:43:46;;;;;;;1.00;0.73;;;;;;;;;;4960557;28;20218;-88
2023/01/15 09:46:16;;;;;;;2.87;0.67;;;;;;;;;;4958915;28;20311;-87
2023/01/15 09:49:03;;;;;;;4.00;0.93;;;;;;;;;;4942727;28;20232;-86
2023/01/15 09:54:31;;;;;;;2.53;0.70;;;;;;;;;;4957720;28;20242;-86
2023/01/15 09:56:59;;;;;;;2.97;0.90;;;;;;;;;;4949732;28;20230;-86
2023/01/15 09:59:31;;;;;;;1.90;1.10;;;;;;;;;;4943562;28;20230;-86
2023/01/15 10:01:56;;;;;;;1.33;0.80;;;;;;;;;;4939409;28;20233;-82
2023/01/15 10:04:35;;;;;;;2.27;1.13;;;;;;;;;;4964203;28;20225;-84
2023/01/15 10:07:47;;;;;;;2.57;0.90;;;;;;;;;;4936250;28;20312;-85
2023/01/15 10:10:15;;;;;;;2.73;1.20;;;;;;;;;;4926925;28;20241;-87
2023/01/15 10:12:43;;;;;;;2.60;1.37;;;;;;;;;;4934627;28;20323;-87
2023/01/15 10:15:37;;;;;;;3.07;1.43;;;;;;;;;;4942302;28;20222;-84
2023/01/15 10:18:07;;;;;;;4.00;1.77;;;;;;;;;;4935164;28;20226;-86
2023/01/15 10:20:48;;;;;;;5.83;1.93;;;;;;;;;;4962820;28;20249;-86
2023/01/15 10:23:19;;;;;;;5.57;1.70;;;;;;;;;;4943483;28;20923;-85
2023/01/15 10:25:49;;;;;;;2.77;1.10;;;;;;;;;;4959020;28;20221;-87
2023/01/15 10:28:58;;;;;;;7.30;1.27;;;;;;;;;;4937143;28;20248;-88
2023/01/15 10:31:39;;;;;;;1.93;0.90;;;;;;;;;;4959730;28;20237;-87
2023/01/15 10:34:18;;;;;;;3.10;1.00;;;;;;;;;;4933529;28;20230;-87
2023/01/15 10:36:50;;;;;;;1.63;1.07;;;;;;;;;;4944756;28;20233;-88
2023/01/15 10:39:27;;;;;;;4.03;2.07;;;;;;;;;;4944472;28;20294;-87
2023/01/15 10:42:29;;;;;;;2.73;1.00;;;;;;;;;;4937888;28;20234;-88
2023/01/15 10:45:02;;;;;;;2.40;1.10;;;;;;;;;;4938251;28;20228;-86
2023/01/15 10:47:35;;;;;;;2.53;1.17;;;;;;;;;;4908595;29;20222;-86
2023/01/15 10:50:02;;;;;;;1.93;1.23;;;;;;;;;;4913154;28;20225;-87
2023/01/15 10:52:33;;;;;;;2.33;1.33;;;;;;;;;;4927100;28;20229;-86
2023/01/15 10:55:53;;;;;;;3.87;1.40;;;;;;;;;;4914842;28;20237;-86
2023/01/15 10:58:44;;;;;;;2.40;1.20;;;;;;;;;;4909588;28;20317;-85
2023/01/15 11:01:15;;;;;;;3.13;1.27;;;;;;;;;;4930053;28;20724;-86
2023/01/15 11:03:46;;;;;;;2.27;1.10;;;;;;;;;;4950026;28;20294;-86
2023/01/15 11:06:16;;;;;;;2.47;1.10;;;;;;;;;;4935301;28;20229;-87
2023/01/15 11:08:49;;;;;;;3.37;1.30;;;;;;;;;;4959027;28;20222;-85
2023/01/15 11:19:39;;;;;;;3.13;1.60;;;;;;;;;;4951951;28;20657;-86
2023/01/15 11:22:09;;;;;;;4.67;1.40;;;;;;;;;;4913771;29;20234;-88
2023/01/15 11:24:53;;;;;;;3.20;1.17;;;;;;;;;;4956305;28;20279;-86
2023/01/15 11:27:25;;;;;;;2.17;1.10;;;;;;;;;;4937758;28;20229;-84
2023/01/15 11:29:53;;;;;;;3.37;1.60;;;;;;;;;;4936228;28;20569;-86
2023/01/15 11:32:32;;;;;;;2.23;1.33;;;;;;;;;;4951820;28;20226;-87
2023/01/15 11:35:00;;;;;;;3.23;1.77;;;;;;;;;;4950795;28;20223;-88
2023/01/15 11:37:28;;;;;;;2.57;1.17;;;;;;;;;;4932536;28;20245;-87
2023/01/15 11:39:59;;;;;;;2.67;1.57;;;;;;;;;;4949337;28;20238;-87
2023/01/15 11:50:53;;;;;;;2.63;1.20;;;;;;;;;;4948124;28;20229;-87
2023/01/15 11:53:23;;;;;;;2.90;1.13;;;;;;;;;;4954840;28;20229;-88
2023/01/15 11:56:00;;;;;;;2.10;1.10;;;;;;;;;;4937852;28;20227;-88
2023/01/15 11:58:31;;;;;;;2.40;1.03;;;;;;;;;;4942155;28;20239;-87
2023/01/15 12:00:57;;;;;;;4.30;1.50;;;;;;;;;;4950479;28;20217;-87
2023/01/15 12:03:25;;;;;;;3.17;1.10;;;;;;;;;;4949373;28;20229;-86
2023/01/15 12:05:59;;;;;;;3.33;1.30;;;;;;;;;;4949522;28;20229;-86
2023/01/15 12:08:57;;;;;;;1.93;1.13;;;;;;;;;;4943535;28;20240;-85
2023/01/15 12:11:49;;;;;;;5.03;1.10;;;;;;;;;;4919905;28;20276;-85
2023/01/15 12:14:14;;;;;;;3.63;1.00;;;;;;;;;;4943007;28;20317;-86
2023/01/15 12:16:49;;;;;;;3.13;1.43;;;;;;;;;;4973675;28;20250;-86
2023/01/15 12:19:18;;;;;;;4.00;1.53;;;;;;;;;;4938699;28;20987;-83
2023/01/15 12:21:55;;;;;;;3.40;1.80;;;;;;;;;;4952334;28;20221;-86
2023/01/15 12:24:38;;;;;;;1.23;0.80;;;;;;;;;;4967407;28;20236;-87
2023/01/15 12:27:12;;;;;;;3.37;1.37;;;;;;;;;;4969672;28;20230;-86
2023/01/15 12:29:57;;;;;;;3.20;1.13;;;;;;;;;;4962939;28;20231;-86
2023/01/15 12:32:25;;;;;;;1.93;1.30;;;;;;;;;;4971252;28;20234;-86
2023/01/15 12:34:57;;;;;;;3.37;1.30;;;;;;;;;;4954752;28;20292;-87
2023/01/15 12:37:26;;;;;;;2.40;1.17;;;;;;;;;;4938042;28;20236;-87
2023/01/15 12:40:13;;;;;;;5.67;1.00;;;;;;;;;;4949443;28;20225;-87
2023/01/15 12:45:28;;;;;;;2.80;1.00;;;;;;;;;;4952982;28;20241;-85
2023/01/15 12:48:17;;;;;;;2.33;0.80;;;;;;;;;;4954525;28;20232;-88
2023/01/15 12:50:45;;;;;;;2.33;0.80;;;;;;;;;;4968318;28;20793;-88
2023/01/15 12:53:31;;;;;;;2.03;1.00;;;;;;;;;;4963313;28;20226;-84
2023/01/15 12:56:09;;;;;;;1.90;1.00;;;;;;;;;;4935918;28;20225;-88
2023/01/15 12:58:41;;;;;;;1.70;1.00;;;;;;;;;;4968408;28;20255;-87
2023/01/15 13:01:20;;;;;;;3.50;1.30;;;;;;;;;;4947306;28;20291;-88
2023/01/15 13:04:36;;;;;;;1.97;0.90;;;;;;;;;;4959002;28;20225;-84
2023/01/15 13:07:23;;;;;;;1.77;1.20;;;;;;;;;;4964702;28;20218;-88
2023/01/15 13:09:55;;;;;;;2.40;1.17;;;;;;;;;;4952993;28;20295;-86
2023/01/15 13:12:20;;;;;;;3.60;1.17;;;;;;;;;;4933734;28;20235;-85
2023/01/15 13:14:46;;;;;;;1.87;1.10;;;;;;;;;;4942675;28;20364;-87
2023/01/15 13:17:17;;;;;;;1.60;0.80;;;;;;;;;;4936781;28;20369;-85
2023/01/15 13:20:03;;;;;;;3.03;1.03;;;;;;;;;;4963094;28;20238;-88
2023/01/15 13:22:29;;;;;;;1.33;0.90;;;;;;;;;;4970414;28;20248;-84
2023/01/15 13:25:10;;;;;;;1.10;0.63;;;;;;;;;;4952460;28;20280;-85
2023/01/15 13:28:07;;;;;;;4.40;1.03;;;;;;;;;;4972204;28;20230;-88
2023/01/15 13:34:01;;;;;;;1.73;0.97;;;;;;;;;;5011265;23;21988;-76
2023/01/15 13:36:32;;;;;;;1.37;0.83;;;;;;;;;;4987142;28;20303;-78
2023/01/15 13:39:00;;;;;;;4.10;1.03;;;;;;;;;;4968554;28;20252;-78
2023/01/15 13:44:22;;;;;;;3.90;1.50;;;;;;;;;;4958045;28;20249;-79
2023/01/15 13:47:08;;;;;;;3.30;1.10;;;;;;;;;;4978595;28;20229;-78
2023/01/15 13:49:44;;;;;;;1.93;1.20;;;;;;;;;;4957427;28;20227;-78
2023/01/15 13:52:26;;;;;;;1.27;0.70;;;;;;;;;;4979566;28;20217;-78
2023/01/15 13:54:51;;;;;;;2.87;0.70;;;;;;;;;;4985393;28;20231;-77
2023/01/15 13:57:35;;;;;;;4.20;0.90;;;;;;;;;;4965082;28;20592;-77
2023/01/15 14:00:06;;;;;;;2.40;1.10;;;;;;;;;;4996022;28;20233;-78
2023/01/15 14:02:37;;;;;;;4.40;1.73;;;;;;;;;;4997707;28;20233;-77
2023/01/15 14:05:22;;;;;;;6.53;1.77;;;;;;;;;;4963011;28;20222;-78
2023/01/15 14:07:50;;;;;;;4.73;1.60;;;;;;;;;;4955871;28;20237;-77
2023/01/15 14:10:16;;;;;;;2.60;1.20;;;;;;;;;;4962925;28;20331;-78
2023/01/15 14:13:23;;;;;;;3.03;1.40;;;;;;;;;;4998532;28;20283;-79
2023/01/15 14:15:56;;;;;;;1.83;0.90;;;;;;;;;;4983775;28;20225;-78
2023/01/15 14:18:42;;;;;;;2.53;1.13;;;;;;;;;;4978329;28;20609;-79
2023/01/15 14:21:29;;;;;;;3.97;1.20;;;;;;;;;;4991458;28;20235;-78
2023/01/15 14:24:18;;;;;;;1.57;1.03;;;;;;;;;;4996920;28;21029;-80
2023/01/15 14:27:03;;;;;;;2.83;1.40;;;;;;;;;;4981064;28;20232;-78
2023/01/15 14:29:50;;;;;;;4.13;1.67;;;;;;;;;;4993073;28;20225;-76
2023/01/15 14:32:19;;;;;;;3.13;1.30;;;;;;;;;;4994341;28;20275;-80
2023/01/15 14:34:56;;;;;;;3.13;1.40;;;;;;;;;;4979692;28;20224;-80
2023/01/15 14:37:54;;;;;;;4.20;0.90;;;;;;;;;;4976932;28;20778;-78
2023/01/15 14:40:25;;;;;;;3.20;1.40;;;;;;;;;;4990780;28;20225;-80
2023/01/15 14:43:01;;;;;;;3.37;1.30;;;;;;;;;;4952506;28;20303;-79
2023/01/15 14:45:37;;;;;;;3.33;1.30;;;;;;;;;;4969463;28;20232;-80
2023/01/15 14:48:22;;;;;;;4.40;2.00;;;;;;;;;;4996522;28;20225;-78
2023/01/15 14:50:52;;;;;;;4.30;1.37;;;;;;;;;;4973738;28;20311;-79
2023/01/15 14:53:41;;;;;;;5.97;1.40;;;;;;;;;;4960596;28;20236;-78
2023/01/15 14:56:12;;;;;;;6.03;4.50;;;;;;;;;;4981340;28;20733;-78
2023/01/15 14:59:04;;;;;;;3.17;1.43;;;;;;;;;;5001027;28;20232;-76
2023/01/15 15:02:00;;;;;;;1.97;1.50;;;;;;;;;;4963958;28;20222;-78
2023/01/15 15:04:34;;;;;;;4.60;1.03;;;;;;;;;;4973257;28;20225;-77
2023/01/15 15:07:16;;;;;;;3.33;1.33;;;;;;;;;;4983465;28;20223;-77
2023/01/15 15:09:44;;;;;;;1.93;1.17;;;;;;;;;;4989368;28;20228;-77
2023/01/15 15:12:47;;;;;;;2.17;1.00;;;;;;;;;;5011213;28;20221;-78
2023/01/15 15:15:20;;;;;;;3.33;1.60;;;;;;;;;;5003890;28;20229;-77
2023/01/15 15:18:04;;;;;;;2.40;1.50;;;;;;;;;;4991701;28;20283;-78
2023/01/15 15:21:03;;;;;;;3.57;1.40;;;;;;;;;;5008924;28;20241;-76
2023/01/15 15:23:44;;;;;;;6.37;1.10;;;;;;;;;;4964636;28;20244;-77
2023/01/15 15:26:20;;;;;;;3.27;1.10;;;;;;;;;;4998811;28;20229;-83
2023/01/15 15:29:04;;;;;;;2.67;0.80;;;;;;;;;;4993693;28;20243;-80
2023/01/15 15:31:34;;;;;;;3.00;1.50;;;;;;;;;;4994346;28;20244;-77
2023/01/15 15:34:02;;;;;;;2.50;1.10;;;;;;;;;;4982686;28;20711;-78
2023/01/15 15:36:29;;;;;;;7.27;1.47;;;;;;;;;;4982861;28;20367;-78
2023/01/15 15:39:17;;;;;;;3.10;1.20;;;;;;;;;;4967138;28;20236;-79
2023/01/15 15:50:30;;;;;;;2.03;1.20;;;;;;;;;;4969768;28;20228;-80
2023/01/15 15:52:57;;;;;;;2.10;1.10;;;;;;;;;;4969564;28;20237;-79
2023/01/15 15:55:25;;;;;;;3.47;2.10;;;;;;;;;;4981132;28;20232;-78
2023/01/15 15:57:55;;;;;;;1.70;1.30;;;;;;;;;;4985876;28;20205;-79
2023/01/15 16:00:31;;;;;;;2.27;1.07;;;;;;;;;;4998005;28;20229;-79
2023/01/15 16:02:58;;;;;;;2.83;1.10;;;;;;;;;;4980606;28;20591;-79
2023/01/15 16:05:30;;;;;;;2.60;1.27;;;;;;;;;;4980304;28;20221;-79
2023/01/15 16:08:06;;;;;;;2.07;1.13;;;;;;;;;;4997869;28;20225;-77
2023/01/15 16:10:32;;;;;;;1.20;0.73;;;;;;;;;;4977611;28;20663;-79
2023/01/15 16:13:02;;;;;;;4.17;1.40;;;;;;;;;;4979756;28;20229;-80
2023/01/15 16:15:32;;;;;;;5.30;2.43;;;;;;;;;;4986429;28;20221;-77
2023/01/15 16:18:00;;;;;;;15.03;5.53;;;;;;;;;;4960868;28;20221;-79
2023/01/15 16:20:28;;;;;;;1.90;1.10;;;;;;;;;;5005415;28;20223;-78
2023/01/15 16:23:01;;;;;;;4.63;2.50;;;;;;;;;;4979830;28;20221;-77
2023/01/15 16:25:39;;;;;;;3.43;1.77;;;;;;;;;;4980729;28;20278;-77
2023/01/15 16:28:16;;;;;;;3.67;1.70;;;;;;;;;;4982318;28;20241;-77
2023/01/15 16:30:44;;;;;;;2.53;1.80;;;;;;;;;;4961591;28;20240;-77